FW1177 Weather Reports


Display with metric or nautical units.
time (UTC)temp
F
wind
direction
speed
MPH
gust
MPH
rain 1hr
in
rain 24hr
in
rain mn
in
humidity
%
barometer
mb
20190221184517 45 16 2.0 4.0 0.01 0.17 0.17 95 1020.0
20190221184017 45 4 3.0 4.0 0.01 0.17 0.17 95 1019.9
20190221183516 45 65 4.0 5.0 0.00 0.16 0.16 95 1019.5
20190221183018 45 309 2.0 5.0 0.00 0.16 0.16 95 1019.3
20190221182515 45 354 4.0 7.0 0.00 0.16 0.16 95 1018.9
20190221182018 45 33 3.0 4.0 0.00 0.16 0.16 96 1019.0
20190221181516 45 34 2.0 4.0 0.00 0.16 0.16 96 1019.2
20190221181017 45 45 2.0 4.0 0.00 0.16 0.16 96 1019.7
20190221180517 45 327 3.0 6.0 0.00 0.16 0.16 96 1019.6
20190221180019 45 2 4.0 6.0 0.00 0.16 0.16 96 1019.7
20190221175515 45 31 3.0 5.0 0.01 0.16 0.16 97 1020.0
20190221175018 44 360 2.0 3.0 0.01 0.16 0.16 97 1020.0
20190221174515 44 347 3.0 5.0 0.01 0.16 0.16 97 1019.9
20190221174017 44 22 2.0 4.0 0.05 0.16 0.16 97 1019.9
20190221173517 44 33 3.0 5.0 0.07 0.16 0.16 97 1020.3
20190221173017 44 353 3.0 5.0 0.07 0.16 0.16 96 1020.6
20190221172515 44 359 3.0 4.0 0.07 0.16 0.16 96 1020.8
20190221172018 44 327 3.0 4.0 0.07 0.16 0.16 96 1021.1
20190221171515 44 306 3.0 3.0 0.07 0.16 0.16 96 1020.6
20190221171017 44 337 2.0 3.0 0.07 0.16 0.16 96 1020.4
20190221170517 44 360 2.0 4.0 0.07 0.16 0.16 96 1019.8
20190221170018 44 18 2.0 4.0 0.07 0.16 0.15 96 1019.8
20190221165515 44 21 2.0 3.0 0.06 0.15 0.15 96 1020.4
20190221165019 45 22 2.0 3.0 0.06 0.15 0.15 95 1020.9
20190221164515 44 6 0.0 1.0 0.06 0.14 0.14 95 1020.8
20190221164017 44 292 0.0 1.0 0.04 0.11 0.10 95 1020.9
20190221163516 44 349 2.0 3.0 0.02 0.09 0.09 94 1020.6
20190221163018 44 332 2.0 3.0 0.03 0.09 0.09 95 1020.5
20190221162516 44 37 2.0 3.0 0.04 0.09 0.09 96 1020.3
20190221162019 44 22 2.0 3.0 0.04 0.09 0.09 96 1019.9
20190221161515 44 4 2.0 5.0 0.05 0.09 0.09 96 1019.6
20190221161017 44 148 1.0 4.0 0.05 0.09 0.09 96 1019.1
20190221160517 43 22 2.0 5.0 0.06 0.09 0.09 96 1018.9
20190221160018 43 118 1.0 4.0 0.06 0.09 0.09 96 1018.4
20190221155515 43 42 2.0 5.0 0.06 0.09 0.09 96 1018.2
20190221155019 43 26 2.0 5.0 0.06 0.09 0.09 95 1018.6
20190221154515 43 23 3.0 5.0 0.06 0.08 0.08 95 1019.3
20190221154016 42 210 1.0 3.0 0.05 0.07 0.07 95 1019.7
20190221153517 42 73 2.0 3.0 0.05 0.07 0.07 95 1019.8
20190221153018 43 208 0.0 2.0 0.05 0.06 0.06 94 1020.4
20190221152515 42 67 0.0 1.0 0.04 0.05 0.05 94 1020.7
20190221152019 42 45 1.0 2.0 0.04 0.05 0.04 94 1019.9
20190221151515 42 179 0.0 2.0 0.04 0.04 0.04 94 1019.5
20190221151017 43 45 2.0 4.0 0.04 0.04 0.03 93 1019.6
20190221150517 42 135 0.0 1.0 0.03 0.03 0.03 93 1020.7
20190221150018 42 292 1.0 4.0 0.03 0.03 0.03 94 1020.2
20190221145515 42 360 2.0 3.0 0.03 0.03 0.03 94 1019.6
20190221145020 42 356 1.0 3.0 0.03 0.03 0.03 94 1019.8
20190221144515 42 117 2.0 5.0 0.02 0.02 0.02 94 1019.4
20190221144017 42 360 4.0 7.0 0.02 0.02 0.02 93 1019.2
20190221143516 42 340 3.0 5.0 0.02 0.02 0.02 93 1019.2
20190221143017 42 10 1.0 3.0 0.01 0.01 0.01 92 1019.7
20190221142516 42 45 2.0 3.0 0.01 0.01 0.01 92 1020.4
20190221142018 42 16 1.0 2.0 0.00 0.00 0.00 92 1021.6
20190221141515 42 157 0.0 1.0 0.00 0.00 0.00 92 1022.8
20190221141017 42 157 1.0 1.0 0.00 0.00 0.00 92 1022.8
20190221140517 42 157 2.0 2.0 0.00 0.00 0.00 92 1022.4
20190221140017 42 180 0.0 1.0 0.00 0.00 0.00 92 1021.8
20190221135515 42 135 0.0 0.0 0.00 0.00 0.00 92 1020.0
20190221135020 41 112 0.0 0.0 0.00 0.00 0.00 93 1019.6
20190221134514 41 112 0.0 0.0 0.00 0.00 0.00 93 1019.6
20190221134017 41 112 0.0 0.0 0.00 0.00 0.00 94 1019.3
20190221133516 40 112 0.0 1.0 0.00 0.00 0.00 95 1018.7
20190221133017 40 335 0.0 0.0 0.00 0.00 0.00 95 1018.2
20190221132515 40 24 1.0 2.0 0.00 0.00 0.00 95 1018.3
20190221132018 40 23 0.0 0.0 0.00 0.00 0.00 95 1018.7
20190221131515 39 337 1.0 2.0 0.00 0.00 0.00 95 1018.6
20190221131017 39 360 1.0 2.0 0.00 0.00 0.00 96 1018.6
20190221130516 39 338 1.0 1.0 0.00 0.00 0.00 96 1018.6
20190221130018 39 22 0.0 0.0 0.00 0.00 0.00 96 1018.6
20190221125515 39 22 0.0 0.0 0.00 0.00 0.00 96 1018.7
20190221125019 39 22 0.0 0.0 0.00 0.00 0.00 96 1018.6
20190221124516 39 22 0.0 1.0 0.00 0.00 0.00 96 1018.5
20190221124017 40 22 0.0 1.0 0.00 0.00 0.00 97 1018.7
20190221123517 40 22 1.0 1.0 0.00 0.00 0.00 97 1018.3
20190221123017 39 22 0.0 1.0 0.00 0.00 0.00 98 1018.3
20190221122515 39 22 1.0 3.0 0.00 0.00 0.00 98 1018.2
20190221122019 39 45 0.0 2.0 0.00 0.00 0.00 98 1018.3
20190221121515 39 15 2.0 4.0 0.00 0.00 0.00 99 1018.1
20190221121017 38 360 2.0 3.0 0.00 0.00 0.00 99 1018.2
20190221120517 38 360 3.0 4.0 0.00 0.00 0.00 99 1018.4
20190221120017 38 359 1.0 2.0 0.00 0.00 0.00 99 1018.7
20190221115515 37 45 1.0 2.0 0.00 0.00 0.00 99 1018.4
20190221115018 37 45 0.0 1.0 0.00 0.00 0.00 99 1018.4
20190221114516 36 46 1.0 2.0 0.00 0.00 0.00 99 1018.4
20190221114017 35 22 1.0 2.0 0.00 0.00 0.00 99 1018.5
20190221113516 35 360 0.0 1.0 0.00 0.00 0.00 99 1018.6
20190221113018 35 360 1.0 2.0 0.00 0.00 0.00 99 1018.6
20190221112516 34 337 2.0 2.0 0.00 0.00 0.00 99 1018.8
20190221112019 34 337 0.0 0.0 0.00 0.00 0.00 99 1019.0
20190221111515 34 337 0.0 0.0 0.00 0.00 0.00 99 1018.8
20190221111017 34 337 0.0 0.0 0.00 0.00 0.00 99 1018.9
20190221110517 34 337 1.0 1.0 0.00 0.00 0.00 99 1019.0
20190221110017 34 360 0.0 0.0 0.00 0.00 0.00 99 1018.8
20190221105515 33 360 0.0 0.0 0.00 0.00 0.00 99 1018.5
20190221105018 33 360 2.0 2.0 0.00 0.00 0.00 99 1018.2
20190221104515 33 360 0.0 0.0 0.00 0.00 0.00 99 1018.4
20190221104016 33 360 0.0 0.0 0.00 0.00 0.00 99 1018.7
20190221103516 33 315 0.0 0.0 0.00 0.00 0.00 99 1019.0
20190221103017 33 315 0.0 1.0 0.00 0.00 0.00 99 1018.9
20190221102514 33 315 1.0 2.0 0.00 0.00 0.00 99 1019.0
20190221102018 33 270 0.0 0.0 0.00 0.00 0.00 99 1018.8
20190221101515 33 315 2.0 3.0 0.00 0.00 0.00 99 1018.7
20190221101017 33 344 0.0 1.0 0.00 0.00 0.00 98 1018.6
20190221100516 33 360 0.0 0.0 0.00 0.00 0.00 98 1018.6
20190221100018 33 360 0.0 0.0 0.00 0.00 0.00 98 1018.6
20190221095514 33 360 1.0 1.0 0.00 0.00 0.00 98 1018.6
20190221095019 33 360 0.0 0.0 0.00 0.00 0.00 98 1018.7
20190221094514 33 360 0.0 0.0 0.00 0.00 0.00 98 1019.0
20190221094016 33 360 0.0 0.0 0.00 0.00 0.00 98 1019.1
20190221093517 32 360 0.0 0.0 0.00 0.00 0.00 98 1018.7
20190221093018 32 360 0.0 0.0 0.00 0.00 0.00 98 1018.7
20190221092515 32 337 0.0 0.0 0.00 0.00 0.00 98 1019.0
20190221092019 32 337 0.0 0.0 0.00 0.00 0.00 98 1019.1
20190221091515 32 337 0.0 0.0 0.00 0.00 0.00 98 1018.9
20190221091016 32 337 0.0 0.0 0.00 0.00 0.00 98 1018.7
20190221090517 32 360 1.0 2.0 0.00 0.00 0.00 98 1018.2
20190221090018 32 360 0.0 0.0 0.00 0.00 0.00 98 1018.5
20190221085515 32 360 0.0 0.0 0.00 0.00 0.00 98 1018.4
20190221085018 32 360 0.0 0.0 0.00 0.00 0.00 98 1018.2
20190221084515 32 360 0.0 0.0 0.00 0.00 0.00 98 1018.0
20190221084017 32 360 0.0 1.0 0.00 0.00 0.00 98 1017.8
20190221083516 32 360 0.0 0.0 0.00 0.00 0.00 98 1017.9
20190221083018 32 360 0.0 0.0 0.00 0.00 0.00 98 1017.8
20190221082514 32 360 0.0 0.0 0.00 0.00 0.00 98 1017.8
20190221082018 32 360 0.0 0.0 0.00 0.00 0.00 98 1017.9
20190221081514 32 360 1.0 1.0 0.00 0.00 0.00 98 1017.9
20190221081017 32 360 0.0 0.0 0.00 0.00 0.00 98 1018.0
20190221080516 32 360 0.0 0.0 0.00 0.00 0.00 98 1017.8
20190221080016 32 360 0.0 0.0 0.00 0.00 0.00 98 1017.9
20190221075515 32 360 0.0 0.0 0.00 0.00 0.00 98 1018.0
20190221075019 32 360 0.0 0.0 0.00 0.00 0.00 98 1018.0
20190221074516 32 360 0.0 0.0 0.00 0.00 0.00 98 1017.9
20190221074016 32 360 0.0 0.0 0.00 0.00 0.00 98 1018.0
20190221073516 33 360 1.0 1.0 0.00 0.00 0.00 98 1018.1
20190221073017 33 360 0.0 0.0 0.00 0.00 0.00 98 1018.2
20190221072515 33 360 0.0 0.0 0.00 0.00 0.00 98 1018.4
20190221072018 33 360 0.0 0.0 0.00 0.00 0.00 98 1018.4
20190221071515 33 360 0.0 0.0 0.00 0.00 0.00 97 1018.4
20190221071016 33 360 0.0 0.0 0.00 0.00 0.00 97 1018.4
20190221070517 33 360 0.0 0.0 0.00 0.00 0.00 97 1018.3
20190221070018 33 360 0.0 0.0 0.00 0.00 0.00 97 1018.2
20190221065514 33 360 0.0 0.0 0.00 0.00 0.00 97 1018.1
20190221065019 33 360 0.0 1.0 0.00 0.01 0.00 97 1018.1
20190221064515 34 360 0.0 0.0 0.00 0.01 0.00 97 1018.2
20190221064017 34 360 0.0 0.0 0.00 0.01 0.00 97 1018.2
20190221063517 34 360 0.0 0.0 0.00 0.01 0.00 97 1018.2
20190221063017 34 360 1.0 1.0 0.00 0.01 0.00 97 1018.2
20190221062018 34 360 0.0 0.0 0.00 0.01 0.00 97 1018.2
20190221061515 34 360 0.0 0.0 0.00 0.01 0.00 97 1018.2
20190221061017 34 360 0.0 0.0 0.00 0.01 0.00 97 1018.3
20190221060516 34 360 0.0 0.0 0.00 0.01 0.00 97 1018.1
20190221055514 34 360 0.0 0.0 0.00 0.01 0.01 97 1018.0
20190221055019 34 360 0.0 0.0 0.00 0.01 0.01 97 1018.1
20190221054516 34 360 1.0 2.0 0.00 0.01 0.01 97 1018.2
20190221054017 34 360 0.0 0.0 0.00 0.01 0.01 97 1018.2
20190221053516 34 360 2.0 2.0 0.00 0.01 0.01 97 1018.2
20190221053018 34 360 1.0 2.0 0.00 0.01 0.01 97 1018.3
20190221052515 35 360 0.0 0.0 0.00 0.01 0.01 96 1018.3
20190221052019 35 360 0.0 0.0 0.00 0.01 0.01 96 1018.4
20190221051515 35 360 0.0 0.0 0.00 0.01 0.01 96 1018.4
20190221051023 35 360 0.0 0.0 0.00 0.01 0.01 96 1018.4
20190221050527 35 360 0.0 1.0 0.00 0.01 0.01 96 1018.3
20190221050023 35 360 0.0 0.0 0.00 0.01 0.01 96 1018.1
20190221045515 35 360 0.0 0.0 0.00 0.01 0.01 96 1018.2
20190221045019 35 360 0.0 0.0 0.00 0.01 0.01 96 1018.2
20190221044516 35 360 0.0 0.0 0.00 0.02 0.01 96 1018.1
20190221044017 35 360 0.0 0.0 0.00 0.02 0.01 96 1018.3
20190221043517 35 360 0.0 0.0 0.00 0.02 0.01 96 1018.3
20190221043019 36 360 0.0 0.0 0.00 0.02 0.01 96 1018.3
20190221042518 36 360 0.0 0.0 0.00 0.02 0.01 95 1018.1
20190221042026 36 360 0.0 0.0 0.00 0.02 0.01 95 1018.1
20190221041515 36 360 0.0 0.0 0.00 0.02 0.01 95 1018.2
20190221041018 36 360 0.0 0.0 0.00 0.02 0.01 95 1018.1
20190221040516 36 360 0.0 0.0 0.00 0.02 0.01 95 1018.2
20190221040018 36 360 0.0 0.0 0.00 0.03 0.01 95 1018.1
20190221035515 36 360 0.0 0.0 0.00 0.03 0.01 95 1018.0
20190221035019 37 360 0.0 0.0 0.00 0.03 0.01 95 1018.0
20190221034515 37 360 0.0 1.0 0.00 0.03 0.01 93 1018.0
20190221034017 37 360 0.0 0.0 0.00 0.03 0.01 94 1017.9
20190221033522 37 360 0.0 0.0 0.00 0.03 0.01 93 1017.8
20190221033018 37 360 0.0 0.0 0.00 0.03 0.01 94 1017.9
20190221032515 37 360 0.0 0.0 0.00 0.03 0.01 94 1017.9
20190221032020 37 360 0.0 0.0 0.00 0.03 0.01 94 1017.8
20190221031514 37 360 0.0 1.0 0.00 0.03 0.01 93 1017.8
20190221031018 38 360 0.0 0.0 0.00 0.03 0.01 93 1017.7
20190221030517 38 360 0.0 0.0 0.00 0.04 0.01 93 1017.7
20190221030018 38 360 0.0 1.0 0.00 0.04 0.01 93 1017.7
20190221025515 38 360 0.0 0.0 0.00 0.04 0.01 92 1017.7
20190221025019 38 360 0.0 0.0 0.00 0.05 0.01 92 1017.7
20190221024515 38 360 0.0 0.0 0.00 0.05 0.01 92 1017.7
20190221024017 39 360 0.0 0.0 0.00 0.05 0.01 92 1017.6
20190221023517 39 360 0.0 0.0 0.00 0.05 0.01 92 1017.5
20190221023018 39 360 0.0 0.0 0.00 0.06 0.01 92 1017.4
20190221022516 39 360 1.0 2.0 0.00 0.06 0.01 92 1017.2
20190221022020 40 360 0.0 0.0 0.00 0.07 0.01 92 1017.3
20190221021515 40 360 0.0 0.0 0.00 0.07 0.01 91 1017.3
20190221021017 40 360 0.0 0.0 0.00 0.08 0.01 91 1017.1
20190221020518 40 360 0.0 0.0 0.00 0.10 0.01 90 1017.1
20190221020018 40 360 0.0 0.0 0.00 0.10 0.01 90 1016.9
20190221015516 41 360 0.0 0.0 0.00 0.10 0.01 89 1016.8
20190221015019 41 360 0.0 0.0 0.00 0.10 0.01 89 1016.7
20190221014516 41 360 1.0 1.0 0.00 0.10 0.01 88 1016.6
20190221014018 41 360 0.0 0.0 0.00 0.10 0.01 87 1016.5
20190221013516 41 360 0.0 0.0 0.00 0.10 0.01 87 1016.5
20190221013019 42 360 1.0 1.0 0.00 0.10 0.01 86 1016.6
20190221012515 42 360 0.0 1.0 0.00 0.10 0.01 84 1016.5
20190221012019 43 360 0.0 0.0 0.00 0.10 0.01 83 1016.5
20190221011516 43 360 1.0 1.0 0.00 0.10 0.01 82 1016.5
20190221011017 43 360 0.0 1.0 0.00 0.10 0.01 82 1016.6
20190221010517 44 360 0.0 0.0 0.00 0.10 0.01 80 1016.6
20190221010020 44 360 0.0 0.0 0.00 0.10 0.01 80 1016.5
20190221005515 44 360 0.0 0.0 0.00 0.10 0.01 79 1016.4
20190221005018 45 360 0.0 0.0 0.00 0.10 0.01 78 1016.3
20190221004515 45 360 0.0 0.0 0.00 0.10 0.01 76 1016.3
20190221004017 46 360 0.0 0.0 0.00 0.10 0.01 75 1016.2
20190221003517 46 360 1.0 1.0 0.00 0.10 0.01 74 1016.1
20190221003018 47 360 1.0 1.0 0.00 0.10 0.01 72 1016.2
20190221002515 48 360 0.0 0.0 0.00 0.10 0.01 69 1016.2
20190221002019 48 360 1.0 1.0 0.00 0.10 0.01 67 1016.1
20190221001515 49 360 1.0 2.0 0.00 0.10 0.01 64 1016.1
20190221001018 50 359 0.0 1.0 0.00 0.10 0.01 62 1016.2
20190221000517 50 337 1.0 1.0 0.00 0.11 0.01 60 1016.1
20190221000018 51 337 1.0 1.0 0.00 0.11 0.01 58 1016.0
20190220235515 52 337 0.0 0.0 0.00 0.12 0.01 57 1015.9
20190220235021 52 337 0.0 0.0 0.00 0.12 0.01 56 1015.9
20190220234516 52 337 0.0 0.0 0.00 0.12 0.01 56 1015.9
20190220234017 53 337 0.0 0.0 0.00 0.12 0.01 55 1016.0
20190220233519 54 337 1.0 1.0 0.00 0.12 0.01 53 1016.0
20190220233018 54 360 1.0 2.0 0.00 0.12 0.01 52 1016.0
20190220232515 54 319 0.0 1.0 0.00 0.12 0.01 51 1015.9
20190220232019 54 315 1.0 2.0 0.00 0.12 0.01 51 1015.9
20190220231515 55 337 2.0 3.0 0.00 0.12 0.01 50 1015.9
20190220231018 55 9 2.0 3.0 0.00 0.12 0.01 48 1015.8
20190220230516 55 292 1.0 2.0 0.00 0.12 0.01 48 1015.9
20190220230017 56 337 2.0 3.0 0.00 0.13 0.01 49 1015.7
20190220225515 56 315 1.0 2.0 0.00 0.13 0.01 48 1015.9
20190220225019 56 321 1.0 3.0 0.00 0.13 0.01 50 1015.9
20190220224515 56 333 1.0 2.0 0.00 0.13 0.01 52 1016.0
20190220224018 56 352 3.0 4.0 0.00 0.13 0.01 51 1015.8
20190220223517 57 331 2.0 4.0 0.00 0.13 0.01 52 1015.7
20190220223018 58 316 1.0 2.0 0.00 0.13 0.01 52 1015.8
20190220222516 58 325 1.0 2.0 0.00 0.14 0.01 51 1015.7
20190220222019 58 28 1.0 2.0 0.00 0.14 0.01 50 1015.7
20190220221515 58 202 0.0 2.0 0.00 0.15 0.01 50 1015.8
20190220221018 58 270 0.0 1.0 0.00 0.16 0.01 50 1016.0
20190220220518 58 225 1.0 2.0 0.00 0.17 0.01 50 1015.9
20190220220018 58 270 0.0 2.0 0.00 0.17 0.01 50 1015.9
20190220215516 58 278 0.0 2.0 0.00 0.18 0.01 50 1016.0
20190220215018 58 270 1.0 3.0 0.00 0.19 0.01 51 1015.8
20190220214515 58 272 0.0 2.0 0.00 0.19 0.01 53 1015.7
20190220214017 57 325 0.0 1.0 0.00 0.19 0.01 52 1015.7
20190220213517 58 135 1.0 3.0 0.00 0.19 0.01 52 1015.6
20190220213017 58 225 1.0 1.0 0.00 0.20 0.01 52 1015.7
20190220212515 58 22 1.0 2.0 0.00 0.20 0.01 52 1015.6
20190220212020 58 357 2.0 3.0 0.00 0.20 0.01 53 1015.7
20190220211516 57 310 0.0 2.0 0.00 0.20 0.01 53 1015.7
20190220211018 57 292 2.0 3.0 0.00 0.22 0.01 53 1015.6
20190220210517 57 34 2.0 3.0 0.00 0.23 0.01 54 1015.7
20190220210019 57 338 1.0 2.0 0.00 0.24 0.01 55 1015.7
20190220205515 56 271 1.0 3.0 0.00 0.24 0.01 56 1015.7
20190220205020 56 235 1.0 3.0 0.00 0.25 0.01 57 1015.7
20190220204516 56 285 1.0 3.0 0.00 0.25 0.01 58 1015.6
20190220204018 56 306 3.0 4.0 0.00 0.25 0.01 59 1015.6
20190220203518 55 336 1.0 2.0 0.00 0.25 0.01 60 1015.5
20190220203019 55 202 0.0 1.0 0.00 0.25 0.01 60 1015.5
20190220202515 55 224 1.0 2.0 0.00 0.25 0.01 61 1015.6
20190220202019 55 247 0.0 1.0 0.00 0.26 0.01 62 1015.6
20190220201515 54 270 1.0 2.0 0.00 0.30 0.01 63 1015.8
20190220201018 54 269 0.0 2.0 0.00 0.37 0.01 63 1015.8
20190220200517 54 319 2.0 3.0 0.00 0.48 0.01 62 1015.8
20190220200018 53 322 1.0 3.0 0.00 0.52 0.01 63 1015.9
20190220195516 53 325 3.0 4.0 0.00 0.56 0.01 63 1015.8
20190220195019 54 308 2.0 4.0 0.00 0.56 0.01 66 1015.9
20190220194515 53 146 1.0 2.0 0.00 0.56 0.01 66 1015.9
20190220194017 53 180 2.0 4.0 0.00 0.56 0.01 65 1016.1
20190220193517 53 284 1.0 3.0 0.00 0.56 0.01 65 1016.1
20190220193018 53 319 2.0 4.0 0.00 0.56 0.01 66 1016.0
20190220192515 53 198 1.0 2.0 0.00 0.57 0.01 68 1016.1
20190220192020 52 225 1.0 2.0 0.00 0.57 0.01 69 1016.1
20190220191515 52 157 1.0 2.0 0.00 0.57 0.01 69 1016.0
20190220191018 51 314 1.0 2.0 0.00 0.59 0.01 69 1016.1
20190220190516 51 292 3.0 4.0 0.00 0.61 0.01 69 1016.2
20190220190019 51 310 2.0 3.0 0.00 0.63 0.01 69 1016.3
20190220185516 52 324 2.0 4.0 0.00 0.64 0.01 71 1016.3
20190220185020 52 206 1.0 4.0 0.00 0.64 0.01 73 1016.4